Flight Track Log - Related Links

Times and Time Zones

All times are in EDT time to prevent confusion due to time zone crossing. See the UPS1191 flight status page for this flight to view local times or setup timezone preferences in your user account.

Time Position Orientation Groundspeed Altitude Reporting Facility
EDT Latitude Longitude Course Direction KTS MPH feet Rate Location/Type
Mon 10:50:06 PM 39.8627 -75.2654 252° West 153 176 600  Level FlightAware ADS-B
Mon 10:50:10 PM 39.8618 -75.2683 248° West 153 176 800 3,818 Climbing FlightAware ADS-B
Mon 10:50:17 PM 39.8596 -75.2747 246° West 154 177 1,300 3,231 Climbing FlightAware ADS-B
Mon 10:50:23 PM 39.8575 -75.2798 242° Southwest 154 177 1,500 1,091 Climbing FlightAware ADS-B
Mon 10:50:39 PM 39.8518 -75.2929 240° Southwest 173 199 1,700 1,154 Climbing FlightAware ADS-B
Mon 10:50:49 PM 39.8473 -75.3028 239° Southwest 187 215 2,000 2,308 Climbing FlightAware ADS-B
Mon 10:51:05 PM 39.8405 -75.3186 241° Southwest 195 224 2,700 2,625 Climbing FlightAware ADS-B
Mon 10:51:21 PM 39.8333 -75.3359 242° Southwest 208 239 3,400 2,516 Climbing FlightAware ADS-B
Mon 10:51:36 PM 39.8257 -75.3539 241° Southwest 224 258 4,000 2,250 Climbing FlightAware ADS-B
Mon 10:51:53 PM 39.8169 -75.3746 241° Southwest 242 278 4,600 2,250 Climbing FlightAware ADS-B
Mon 10:52:08 PM 39.8082 -75.3945 240° Southwest 255 293 5,200 2,690 Climbing FlightAware ADS-B
Mon 10:52:22 PM 39.8005 -75.4124 241° Southwest 258 297 5,900 3,300 Climbing FlightAware ADS-B
Mon 10:52:28 PM 39.7966 -75.4213 240° Southwest 260 299 6,300 3,818 Climbing FlightAware ADS-B
Mon 10:52:33 PM 39.7942 -75.4281 245° Southwest 260 299 6,600 3,333 Climbing FlightAware ADS-B
Mon 10:52:37 PM 39.7925 -75.4346 251° West 261 300 6,800 3,000 Climbing FlightAware ADS-B
Mon 10:52:41 PM 39.7917 -75.4401 259° West 261 300 7,000 2,667 Climbing FlightAware ADS-B
Mon 10:52:46 PM 39.7915 -75.4479 268° West 262 302 7,200 3,333 Climbing FlightAware ADS-B
Mon 10:52:50 PM 39.7921 -75.4545 277° West 263 303 7,500 3,750 Climbing FlightAware ADS-B
Mon 10:52:54 PM 39.7930 -75.4607 281° West 265 305 7,700 2,667 Climbing FlightAware ADS-B
Mon 10:52:59 PM 39.7945 -75.4674 286° West 267 307 7,900 2,667 Climbing FlightAware ADS-B
Mon 10:53:03 PM 39.7962 -75.4734 290° West 269 310 8,100 3,000 Climbing FlightAware ADS-B
Mon 10:53:09 PM 39.8000 -75.4832 297° West 271 312 8,400 3,000 Climbing FlightAware ADS-B
Mon 10:53:13 PM 39.8027 -75.4883 305° West 271 312 8,600 3,750 Climbing FlightAware ADS-B
Mon 10:53:17 PM 39.8056 -75.4929 309° West 271 312 8,900 4,286 Climbing FlightAware ADS-B
Mon 10:53:20 PM 39.8086 -75.4967 316° Northwest 272 313 9,100 3,000 Climbing FlightAware ADS-B
Mon 10:53:23 PM 39.8116 -75.4998 322° Northwest 273 314 9,200 2,571 Climbing FlightAware ADS-B
Mon 10:53:27 PM 39.8156 -75.5032 327° Northwest 274 315 9,400 3,429 Climbing FlightAware ADS-B
Mon 10:53:30 PM 39.8193 -75.5057 333° Northwest 277 319 9,600 3,000 Climbing FlightAware ADS-B
Mon 10:53:35 PM 39.8245 -75.5085 338° Northwest 280 322 9,800 2,250 Climbing FlightAware ADS-B
Mon 10:53:38 PM 39.8283 -75.5100 343° North 282 325 9,900 2,727 Climbing FlightAware ADS-B
Mon 10:53:46 PM 39.8394 -75.5130 348° North 287 330 10,300 2,400 Climbing FlightAware ADS-B
Mon 10:53:53 PM 39.8485 -75.5143 354° North 291 335 10,500 1,565 Climbing FlightAware ADS-B
Mon 10:54:09 PM 39.8707 -75.5157 357° North 313 360 10,900 522 Climbing FlightAware ADS-B
Mon 10:54:39 PM 39.9187 -75.5211 355° North 369 425 10,900  Level FlightAware ADS-B
Mon 10:55:10 PM 39.9726 -75.5289 354° North 380 437 10,900  Level FlightAware ADS-B
Mon 10:55:40 PM 40.0256 -75.5364 354° North 380 437 10,900  Level FlightAware ADS-B
Mon 10:56:11 PM 40.0802 -75.5437 354° North 382 440 10,900 774 Level FlightAware ADS-B
Mon 10:56:42 PM 40.1341 -75.5494 355° North 387 445 11,700 2,000 Climbing FlightAware ADS-B
Mon 10:57:08 PM 40.1831 -75.5550 355° North 394 453 12,800 2,727 Climbing FlightAware ADS-B
Mon 10:57:15 PM 40.1957 -75.5585 348° North 393 452 13,200 3,000 Climbing FlightAware ADS-B
Mon 10:57:24 PM 40.2105 -75.5651 341° North 391 450 13,600 2,625 Climbing FlightAware ADS-B
Mon 10:57:31 PM 40.2220 -75.5724 334° Northwest 392 451 13,900 2,800 Climbing FlightAware ADS-B
Mon 10:57:39 PM 40.2345 -75.5831 327° Northwest 391 450 14,300 2,700 Climbing FlightAware ADS-B
Mon 10:57:51 PM 40.2503 -75.6019 318° Northwest 391 450 14,800 2,571 Climbing FlightAware ADS-B
Mon 10:58:21 PM 40.2873 -75.6566 312° West 398 458 16,100 2,500 Climbing FlightAware ADS-B
Mon 10:58:51 PM 40.3236 -75.7121 311° West 403 464 17,300 2,262 Climbing FlightAware ADS-B
Mon 10:59:22 PM 40.3612 -75.7690 311° West 410 472 18,400 2,262 Climbing FlightAware ADS-B
Mon 10:59:52 PM 40.3997 -75.8273 311° West 417 480 19,600 2,143 Climbing FlightAware ADS-B
Mon 11:00:04 PM 40.4149 -75.8506 311° West 421 484 19,900 1,920 Climbing FlightAware ADS-B
Mon 11:00:17 PM 40.4288 -75.8768 305° West 425 489 20,400 2,100 Climbing FlightAware ADS-B
Mon 11:00:24 PM 40.4356 -75.8932 299° West 428 493 20,600 2,000 Climbing FlightAware ADS-B
Mon 11:00:29 PM 40.4395 -75.9047 294° West 430 495 20,800 1,636 Climbing FlightAware ADS-B
Mon 11:00:35 PM 40.4441 -75.9210 290° West 434 499 20,900 706 Climbing FlightAware ADS-B
Mon 11:00:46 PM 40.4504 -75.9489 287° West 438 504 21,000 143 Climbing FlightAware ADS-B
Mon 11:01:17 PM 40.4636 -76.0284 282° West 437 503 21,000  Level FlightAware ADS-B
Mon 11:01:50 PM 40.4765 -76.1130 281° West 436 502 21,000  Level FlightAware ADS-B
Mon 11:02:21 PM 40.4892 -76.1951 282° West 442 509 21,000 194 Level FlightAware ADS-B
Mon 11:02:52 PM 40.5019 -76.2756 282° West 446 513 21,200 1,279 Climbing FlightAware ADS-B
Mon 11:03:22 PM 40.5145 -76.3556 282° West 447 514 22,300 2,100 Climbing FlightAware ADS-B
Mon 11:03:52 PM 40.5275 -76.4362 282° West 451 519 23,300 1,857 Climbing FlightAware ADS-B
Mon 11:04:04 PM 40.5337 -76.4693 284° West 453 521 23,600 1,773 Climbing FlightAware ADS-B
Mon 11:04:36 PM 40.5503 -76.5540 284° West 458 527 24,600 1,645 Climbing FlightAware ADS-B
Mon 11:05:06 PM 40.5662 -76.6361 284° West 463 533 25,300 1,452 Climbing FlightAware ADS-B
Mon 11:05:38 PM 40.5828 -76.7236 284° West 468 539 26,100 1,619 Climbing FlightAware ADS-B
Mon 11:06:09 PM 40.5988 -76.8090 284° West 475 547 27,000 1,839 Climbing FlightAware ADS-B
Mon 11:06:40 PM 40.6151 -76.8962 284° West 480 552 28,000 2,226 Climbing FlightAware ADS-B
Mon 11:07:11 PM 40.6315 -76.9847 284° West 475 547 29,300 2,303 Climbing FlightAware ADS-B
Mon 11:08:19 PM 40.6650 -77.1690 284° West 474 545 31,800 2,187 Climbing FlightAware ADS-B
Mon 11:08:58 PM 40.6870 -77.2830 284° West 473 544 33,200 2,071 Climbing FlightAware ADS-B
Mon 11:09:43 PM 40.7100 -77.4060 284° West 470 541 34,700 1,950 Climbing FlightAware ADS-B
Mon 11:10:18 PM 40.7270 -77.5020 283° West 466 536 35,800 975 Climbing FlightAware ADS-B
Mon 11:11:03 PM 40.7510 -77.6290 284° West 466 536 36,000 133 Climbing FlightAware ADS-B
Mon 11:11:48 PM 40.7730 -77.7490 284° West 467 537 36,000  Level FlightAware ADS-B
Mon 11:12:27 PM 40.7920 -77.8560 283° West 469 540 36,000  Level FlightAware ADS-B
Mon 11:13:07 PM 40.8120 -77.9690 283° West 469 540 36,000  Level FlightAware ADS-B
Mon 11:13:52 PM 40.8330 -78.0910 283° West 466 536 36,000  Level FlightAware ADS-B
Mon 11:14:32 PM 40.8520 -78.1990 283° West 466 536 36,000  Level FlightAware ADS-B
Mon 11:15:16 PM 40.8730 -78.3160 283° West 467 537 36,000  Level FlightAware ADS-B
Mon 11:16:02 PM 40.8950 -78.4470 283° West 468 539 36,000  Level FlightAware ADS-B
Mon 11:16:43 PM 40.9150 -78.5630 283° West 469 540 36,000  Level FlightAware ADS-B
Mon 11:17:22 PM 40.9350 -78.6800 283° West 469 540 36,000  Level FlightAware ADS-B
Mon 11:18:07 PM 40.9550 -78.8020 282° West 469 540 36,000  Level FlightAware ADS-B
Mon 11:18:47 PM 40.9740 -78.9120 283° West 469 540 36,000  Level FlightAware ADS-B
Mon 11:19:27 PM 40.9920 -79.0210 282° West 467 537 36,000  Level FlightAware ADS-B
Mon 11:20:27 PM 41.0200 -79.1920 282° West 467 537 36,000  Level FlightAware ADS-B
Mon 11:21:07 PM 41.0380 -79.3070 282° West 469 540 36,000  Level FlightAware ADS-B
Mon 11:21:47 PM 41.0570 -79.4220 282° West 470 541 36,000  Level FlightAware ADS-B
Mon 11:22:47 PM 41.0840 -79.5910 282° West 470 541 36,000  Level FlightAware ADS-B
Mon 11:23:27 PM 41.1010 -79.7000 282° West 468 539 36,000  Level FlightAware ADS-B
Mon 11:24:12 PM 41.1180 -79.8120 281° West 468 539 36,000  Level FlightAware ADS-B
Mon 11:24:51 PM 41.1400 -79.9430 283° West 467 537 36,000  Level FlightAware ADS-B
Mon 11:25:47 PM 41.1640 -80.0970 282° West 468 539 36,000  Level FlightAware ADS-B
Mon 11:26:22 PM 41.1790 -80.1960 281° West 468 539 36,000  Level FlightAware ADS-B
Mon 11:27:07 PM 41.1990 -80.3200 282° West 468 539 36,000 267 Level FlightAware ADS-B
Mon 11:27:52 PM 41.2250 -80.4450 285° West 464 534 36,400 988 Climbing FlightAware ADS-B
Mon 11:28:32 PM 41.2600 -80.5500 294° West 461 531 37,400 1,129 Climbing FlightAware ADS-B
Mon 11:29:17 PM 41.3000 -80.6650 295° West 460 529 38,000 424 Climbing FlightAware ADS-B
Mon 11:29:57 PM 41.3370 -80.7700 295° West 459 528 38,000  Level FlightAware ADS-B
Mon 11:30:37 PM 41.3730 -80.8730 295° West 461 531 38,000  Level FlightAware ADS-B
Mon 11:31:24 PM 41.4170 -80.9990 295° West 461 531 38,000  Level FlightAware ADS-B
Mon 11:32:05 PM 41.4540 -81.1020 296° West 460 529 38,000  Level FlightAware ADS-B
Mon 11:32:49 PM 41.4950 -81.2160 296° West 459 528 38,000  Level FlightAware ADS-B
Mon 11:33:28 PM 41.5300 -81.3140 296° West 459 528 38,000  Level FlightAware ADS-B
Mon 11:34:07 PM 41.5640 -81.4150 294° West 457 526 38,000  Level FlightAware ADS-B
Mon 11:34:55 PM 41.6060 -81.5390 294° West 457 526 38,000  Level FlightAware ADS-B
Mon 11:35:35 PM 41.6420 -81.6420 295° West 456 525 38,000  Level FlightAware ADS-B
Mon 11:36:14 PM 41.6760 -81.7440 294° West 457 526 38,000  Level FlightAware ADS-B
Mon 11:36:58 PM 41.7130 -81.8530 294° West 457 526 38,000  Level FlightAware ADS-B
Mon 11:37:41 PM 41.7510 -81.9670 294° West 459 528 38,000  Level FlightAware ADS-B
Mon 11:38:24 PM 41.7900 -82.0820 294° West 460 529 38,000  Level FlightAware ADS-B
Mon 11:39:04 PM 41.8260 -82.1880 295° West 461 531 38,000  Level FlightAware ADS-B
Mon 11:39:48 PM 41.8620 -82.2980 294° West 462 532 38,000  Level FlightAware ADS-B
Mon 11:40:28 PM 41.8990 -82.4090 294° West 461 531 38,000  Level FlightAware ADS-B
Mon 11:41:12 PM 41.9360 -82.5210 294° West 462 532 38,000  Level FlightAware ADS-B
Mon 11:41:48 PM 41.9670 -82.6160 294° West 461 531 38,000  Level FlightAware ADS-B
Mon 11:42:30 PM 41.9980 -82.7080 294° West 461 531 38,000  Level FlightAware ADS-B
Mon 11:43:12 PM 42.0380 -82.8300 294° West 462 532 38,000  Level FlightAware ADS-B
Mon 11:44:02 PM 42.0840 -82.9710 294° West 463 533 38,000  Level FlightAware ADS-B
Mon 11:44:39 PM 42.1140 -83.0650 293° West 462 532 38,000  Level FlightAware ADS-B
Mon 11:45:20 PM 42.1500 -83.1770 293° West 462 532 38,000  Level FlightAware ADS-B
Mon 11:46:00 PM 42.1800 -83.2670 294° West 461 531 38,000  Level FlightAware ADS-B
Mon 11:46:43 PM 42.2090 -83.3760 290° West 460 529 38,000  Level FlightAware ADS-B
Mon 11:47:26 PM 42.2200 -83.4950 277° West 459 528 38,000  Level FlightAware ADS-B
Mon 11:48:10 PM 42.2210 -83.6510 271° West 457 526 38,000  Level FlightAware ADS-B
Mon 11:48:55 PM 42.2240 -83.7790 272° West 450 518 38,000  Level FlightAware ADS-B
Mon 11:49:29 PM 42.2260 -83.8770 272° West 446 513 38,000  Level FlightAware ADS-B
Mon 11:50:14 PM 42.2290 -83.9980 272° West 445 512 38,000  Level FlightAware ADS-B
Mon 11:51:08 PM 42.2320 -84.1490 272° West 440 506 38,000  Level FlightAware ADS-B
Mon 11:51:55 PM 42.2340 -84.2810 271° West 440 506 38,000  Level FlightAware ADS-B
Mon 11:52:35 PM 42.2360 -84.3900 271° West 443 510 38,000  Level FlightAware ADS-B
Mon 11:53:15 PM 42.2380 -84.5000 271° West 445 512 38,000  Level FlightAware ADS-B
Mon 11:54:05 PM 42.2400 -84.6400 271° West 446 513 38,000  Level FlightAware ADS-B
Mon 11:54:58 PM 42.2400 -84.7900 270° West 446 513 38,000  Level FlightAware ADS-B
Mon 11:55:40 PM 42.2410 -84.9100 271° West 446 513 38,000  Level FlightAware ADS-B
Mon 11:56:25 PM 42.2420 -85.0330 271° West 452 520 38,000  Level FlightAware ADS-B
Mon 11:57:06 PM 42.2430 -85.1480 271° West 453 521 38,000  Level FlightAware ADS-B
Mon 11:57:44 PM 42.2440 -85.2540 271° West 456 525 38,000  Level FlightAware ADS-B
Mon 11:58:27 PM 42.2450 -85.3820 271° West 459 528 38,000  Level FlightAware ADS-B
Mon 11:59:10 PM 42.2460 -85.5060 271° West 461 531 38,000  Level FlightAware ADS-B
Mon 11:59:53 PM 42.2470 -85.6320 271° West 460 529 38,000  Level FlightAware ADS-B
Tue 12:00:35 AM 42.2480 -85.7510 271° West 459 528 38,000  Level FlightAware ADS-B
Tue 12:01:16 AM 42.2480 -85.8670 270° West 458 527 38,000  Level FlightAware ADS-B
Tue 12:02:00 AM 42.2490 -85.9940 271° West 457 526 38,000  Level FlightAware ADS-B
Tue 12:02:54 AM 42.2500 -86.1440 271° West 459 528 38,000 -186 Level FlightAware ADS-B
Tue 12:03:37 AM 42.2490 -86.2700 269° West 459 528 37,700 -878 Descending FlightAware ADS-B
Tue 12:04:16 AM 42.2490 -86.3850 270° West 462 532 36,800 -1,271 Descending FlightAware ADS-B
Tue 12:05:02 AM 42.2480 -86.5210 269° West 462 532 35,900 -1,143 Descending FlightAware ADS-B
Tue 12:05:40 AM 42.2480 -86.6280 270° West 460 529 35,200 -1,129 Descending FlightAware ADS-B
Tue 12:06:27 AM 42.2470 -86.7620 269° West 460 529 34,300 -1,186 Descending FlightAware ADS-B
Tue 12:07:06 AM 42.2460 -86.8720 269° West 462 532 33,500 -1,231 Descending FlightAware ADS-B
Tue 12:07:45 AM 42.2450 -86.9900 269° West 467 537 32,700 -1,214 Descending FlightAware ADS-B
Tue 12:08:30 AM 42.2440 -87.1220 269° West 467 537 31,800 -966 Descending FlightAware ADS-B
Tue 12:09:12 AM 42.2430 -87.2390 269° West 461 531 31,300 -1,326 Descending FlightAware ADS-B
Tue 12:09:56 AM 42.2410 -87.3720 269° West 458 527 29,900 -2,233 Descending FlightAware ADS-B
Tue 12:10:38 AM 42.2400 -87.4910 269° West 442 509 28,100 -2,780 Descending FlightAware ADS-B
Tue 12:11:18 AM 42.2380 -87.6010 269° West 432 497 26,100 -3,073 Descending FlightAware ADS-B
Tue 12:12:00 AM 42.2370 -87.7120 269° West 426 490 23,900 -3,140 Descending FlightAware ADS-B
Tue 12:12:44 AM 42.2350 -87.8300 269° West 413 475 21,600 -3,225 Descending FlightAware ADS-B
Tue 12:13:20 AM 42.2340 -87.9210 269° West 408 470 19,600 -3,143 Descending FlightAware ADS-B
Tue 12:14:08 AM 42.2320 -88.0410 269° West 392 451 17,200 -2,455 Descending FlightAware ADS-B
Tue 12:14:48 AM 42.2300 -88.1370 268° West 359 413 16,000 -973 Descending FlightAware ADS-B
Tue 12:15:22 AM 42.2290 -88.2090 269° West 322 371 16,000 -1,615 Level FlightAware ADS-B
Tue 12:16:06 AM 42.2270 -88.2980 268° West 327 376 13,900 -2,667 Descending FlightAware ADS-B
Tue 12:16:52 AM 42.2260 -88.3880 269° West 292 336 12,000 -2,163 Descending FlightAware ADS-B
Tue 12:17:32 AM 42.2250 -88.4560 269° West 257 296 10,800 -2,029 Descending FlightAware ADS-B
Tue 12:18:00 AM 42.2230 -88.5020 267° West 263 303 9,700 -1,862 Descending FlightAware ADS-B
Tue 12:18:30 AM 42.2220 -88.5510 268° West 265 305 9,000 -808 Descending FlightAware ADS-B
Tue 12:18:52 AM 42.2220 -88.5880 270° West 263 303 9,000 -444 Level FlightAware ADS-B
Tue 12:19:24 AM 42.2200 -88.6390 267° West 256 295 8,600 -1,100 Descending FlightAware ADS-B
Tue 12:19:52 AM 42.2190 -88.6840 268° West 253 291 7,900 -1,500 Descending FlightAware ADS-B
Tue 12:20:20 AM 42.2180 -88.7280 268° West 255 293 7,200 -1,571 Descending FlightAware ADS-B
Tue 12:20:34 AM 42.2180 -88.7500 270° West 255 293 6,800 -1,571 Descending FlightAware ADS-B
Tue 12:21:02 AM 42.2150 -88.7930 265° West 247 284 6,100 -1,714 Descending FlightAware ADS-B
Tue 12:21:30 AM 42.2040 -88.8340 250° West 241 277 5,200 -1,909 Descending FlightAware ADS-B
Tue 12:21:46 AM 42.1960 -88.8550 243° Southwest 238 274 4,700 -1,535 Descending FlightAware ADS-B
Tue 12:22:13 AM 42.1850 -88.8900 247° West 220 253 4,100 -1,053 Descending FlightAware ADS-B
Tue 12:22:43 AM 42.1720 -88.9260 244° Southwest 199 229 3,700 -873 Descending FlightAware ADS-B
Tue 12:23:08 AM 42.1600 -88.9510 237° Southwest 185 213 3,300 -1,024 Descending FlightAware ADS-B
Tue 12:23:24 AM 42.1530 -88.9660 238° Southwest 183 211 3,000 -955 Descending FlightAware ADS-B
Tue 12:23:52 AM 42.1400 -88.9920 236° Southwest 175 201 2,600 -857 Descending FlightAware ADS-B
Tue 12:24:20 AM 42.1270 -89.0170 235° Southwest 160 184 2,200 -556 Descending FlightAware ADS-B
Tue 12:24:46 AM 42.1180 -89.0360 237° Southwest 136 157 2,100 -146 Descending FlightAware ADS-B
Tue 12:25:01 AM 42.1160 -89.0480 257° West 134 154 2,100  Level FlightAware ADS-B
Tue 12:25:16 AM 42.1140 -89.0610 258° West 135 155 2,100 -143 Level FlightAware ADS-B
Tue 12:25:43 AM 42.1150 -89.0820 274° West 126 145 2,000 -316 Descending FlightAware ADS-B
Tue 12:25:54 AM 42.1190 -89.0890 308° West 130 150 1,900 -621 Descending FlightAware ADS-B
Tue 12:26:12 AM 42.1290 -89.0970 329° Northwest 131 151 1,700 -643 Descending FlightAware ADS-B
Tue 12:26:22 AM 42.1350 -89.0970 360° North 133 153 1,600 -632 Descending FlightAware ADS-B
Tue 12:26:50 AM 42.1520 -89.0960 North 131 151 1,300 -600 Descending FlightAware ADS-B
Tue 12:27:22 AM 42.1720 -89.0930 North 134 154 1,000 -577 Descending FlightAware ADS-B
Tue 12:27:42 AM 42.1830 -89.0920 North 128 147 800 -600 Descending FlightAware ADS-B

Login

Don't have an account? Register now (free) for customized features, flight alerts, and more!